Terminal Aerodrome Forecast
Issued by NWS

Home | Current Version | Previous Version | Graphics & Text | Print | Product List | Glossary On
Versions: 1 2 3 4 5 6 7 8 9 10 11 12 13 14 15 16 17 18 19 20 21 22 23 24 25 26 27 28 29 30 31
000
FTUS43 KLOT 260317 AAA
TAFMDW
TAF AMD
KMDW 260317Z 2603/2624 07005KT P6SM BKN050
     FM260500 34004KT P6SM SCT030 BKN040
     FM261800 02008KT P6SM BKN045=

USA.gov is the U.S. government's official web portal to all federal, state and local government web resources and services.